createdAt,value
2023-11-23T00:00:17.320Z,57.93
2023-11-23T00:02:44.114Z,58.20
2023-11-23T00:05:11.155Z,57.95
2023-11-23T00:07:37.898Z,58.25
2023-11-23T00:10:06.906Z,57.66
2023-11-23T00:12:33.723Z,58.29
2023-11-23T00:15:00.569Z,57.93
2023-11-23T00:17:27.324Z,58.62
2023-11-23T00:19:53.999Z,58.41
2023-11-23T00:22:20.736Z,58.86
2023-11-23T00:24:47.385Z,59.00
2023-11-23T00:27:15.440Z,58.76
2023-11-23T00:29:42.208Z,58.63
2023-11-23T00:32:09.033Z,58.18
2023-11-23T00:34:35.775Z,58.15
2023-11-23T00:37:02.475Z,57.80
2023-11-23T00:39:29.276Z,57.71
2023-11-23T00:41:56.030Z,57.71
2023-11-23T00:44:24.100Z,57.72
2023-11-23T00:46:50.774Z,58.38
2023-11-23T00:49:17.512Z,57.94
2023-11-23T00:51:44.316Z,58.09
2023-11-23T00:54:11.045Z,58.27
2023-11-23T00:56:37.817Z,57.98
2023-11-23T00:59:04.733Z,57.76
2023-11-23T01:01:32.825Z,57.62
2023-11-23T01:03:59.744Z,58.13
2023-11-23T01:06:27.439Z,58.18
2023-11-23T01:08:54.116Z,58.43
2023-11-23T01:11:20.787Z,57.99
2023-11-23T01:13:47.582Z,58.00
2023-11-23T01:16:14.261Z,58.47
2023-11-23T01:18:42.312Z,58.12
2023-11-23T01:21:09.061Z,57.73
2023-11-23T01:23:35.746Z,58.76
2023-11-23T01:26:02.462Z,58.92
2023-11-23T01:28:29.139Z,58.59
2023-11-23T01:31:20.556Z,60.18
2023-11-23T01:34:13.984Z,59.70
2023-11-23T01:36:40.750Z,59.67
2023-11-23T01:39:07.562Z,59.80
2023-11-23T01:41:34.274Z,59.47
2023-11-23T01:44:01.281Z,59.85
2023-11-23T01:46:28.032Z,58.82
2023-11-23T01:48:55.165Z,58.64
2023-11-23T01:51:23.357Z,58.24
2023-11-23T01:53:50.072Z,59.08
2023-11-23T01:56:16.834Z,59.17
2023-11-23T01:58:43.557Z,59.91
2023-11-23T02:01:10.277Z,59.44
2023-11-23T02:03:37.389Z,59.09
2023-11-23T02:06:05.026Z,58.80
2023-11-23T02:08:33.048Z,59.19
2023-11-23T02:10:59.802Z,59.88
2023-11-23T02:13:26.480Z,59.26
2023-11-23T02:15:53.729Z,59.43
2023-11-23T02:18:20.548Z,59.82
2023-11-23T02:20:47.290Z,60.23
2023-11-23T02:23:13.983Z,60.51
2023-11-23T02:25:42.069Z,60.66
2023-11-23T02:28:08.772Z,60.44
2023-11-23T02:30:35.520Z,60.29
2023-11-23T02:33:02.306Z,59.90
2023-11-23T02:35:29.681Z,58.88
2023-11-23T02:37:56.351Z,58.55
2023-11-23T02:40:23.125Z,58.28
2023-11-23T02:42:51.161Z,58.22
2023-11-23T02:45:17.961Z,58.22
2023-11-23T02:47:44.706Z,58.58
2023-11-23T02:50:11.972Z,58.04
2023-11-23T02:52:38.638Z,57.74
2023-11-23T02:55:06.209Z,57.42
2023-11-23T02:57:32.951Z,58.26
2023-11-23T03:00:01.024Z,58.46
2023-11-23T03:02:27.801Z,58.64
2023-11-23T03:04:54.531Z,58.25
2023-11-23T03:07:21.208Z,58.18
2023-11-23T03:09:47.920Z,57.52
2023-11-23T03:12:14.629Z,57.91
2023-11-23T03:14:41.318Z,57.75
2023-11-23T03:17:09.524Z,57.64
2023-11-23T03:19:36.314Z,58.19
2023-11-23T03:22:03.341Z,57.99
2023-11-23T03:24:30.123Z,58.38
2023-11-23T03:26:56.866Z,59.42
2023-11-23T03:29:23.594Z,59.15
2023-11-23T03:31:51.421Z,58.96
2023-11-23T03:34:19.501Z,58.96
2023-11-23T03:36:46.202Z,58.68
2023-11-23T03:39:13.088Z,58.71
2023-11-23T03:41:40.393Z,58.08
2023-11-23T03:44:07.090Z,57.64
2023-11-23T03:46:33.773Z,57.19
2023-11-23T03:49:00.510Z,57.73
2023-11-23T03:51:28.550Z,57.43
2023-11-23T03:53:55.394Z,57.84
2023-11-23T03:56:22.144Z,57.75
2023-11-23T03:58:48.992Z,57.16
2023-11-23T04:01:15.914Z,56.80
2023-11-23T04:03:42.716Z,57.42
2023-11-23T04:06:09.743Z,57.62
2023-11-23T04:08:38.307Z,57.24
2023-11-23T04:11:05.711Z,58.15
2023-11-23T04:13:32.433Z,58.76
2023-11-23T04:15:59.176Z,59.26
2023-11-23T04:18:25.858Z,59.55
2023-11-23T04:20:52.691Z,59.35
2023-11-23T04:23:19.367Z,58.82
2023-11-23T04:25:47.459Z,58.16
2023-11-23T04:28:14.158Z,57.76
2023-11-23T04:30:40.858Z,57.50
2023-11-23T04:33:07.711Z,56.88
2023-11-23T04:35:34.445Z,56.87
2023-11-23T04:38:01.133Z,57.18
2023-11-23T04:40:27.783Z,56.21
2023-11-23T04:42:55.856Z,56.46
2023-11-23T04:45:22.649Z,56.50
2023-11-23T04:47:49.402Z,56.29
2023-11-23T04:50:18.131Z,56.27
2023-11-23T04:52:46.796Z,55.72
2023-11-23T04:55:13.504Z,55.54
2023-11-23T04:57:40.198Z,55.50
2023-11-23T05:00:09.591Z,55.34
2023-11-23T05:02:36.385Z,55.30
2023-11-23T05:05:03.222Z,55.56
2023-11-23T05:07:29.920Z,54.88
2023-11-23T05:09:56.598Z,55.27
2023-11-23T05:12:23.325Z,54.64
2023-11-23T05:14:50.136Z,54.85
2023-11-23T05:17:18.150Z,54.72
2023-11-23T05:19:44.861Z,55.49
2023-11-23T05:22:11.612Z,55.53
2023-11-23T05:24:38.350Z,54.76
2023-11-23T05:27:05.481Z,55.81
2023-11-23T05:29:32.220Z,56.04
2023-11-23T05:31:58.942Z,56.56
2023-11-23T05:34:26.982Z,57.59
2023-11-23T05:36:53.710Z,57.42
2023-11-23T05:39:20.831Z,57.04
2023-11-23T05:41:47.608Z,57.09
2023-11-23T05:44:14.342Z,56.53
2023-11-23T05:46:41.071Z,56.22
2023-11-23T05:49:08.250Z,56.75
2023-11-23T05:51:36.396Z,56.73
2023-11-23T05:54:03.246Z,56.57
2023-11-23T05:56:29.977Z,55.63
2023-11-23T05:58:56.644Z,55.97
2023-11-23T06:01:23.315Z,55.73
2023-11-23T06:03:50.200Z,55.36
2023-11-23T06:06:20.451Z,55.56
2023-11-23T06:08:48.717Z,55.23
2023-11-23T06:11:15.409Z,55.38
2023-11-23T06:13:44.035Z,55.63
2023-11-23T06:16:12.039Z,55.76
2023-11-23T06:18:38.887Z,56.05
2023-11-23T06:21:06.012Z,55.82
2023-11-23T06:23:32.713Z,56.52
2023-11-23T06:26:00.780Z,56.53
2023-11-23T06:28:27.455Z,56.89
2023-11-23T06:30:54.178Z,57.65
2023-11-23T06:33:20.976Z,56.71
2023-11-23T06:35:47.867Z,56.47
2023-11-23T06:38:14.546Z,56.34
2023-11-23T06:40:41.286Z,56.54
2023-11-23T06:43:09.303Z,56.46
2023-11-23T06:45:35.987Z,57.17
2023-11-23T06:48:02.841Z,56.84
2023-11-23T06:50:29.697Z,55.60
2023-11-23T06:52:56.350Z,56.17
2023-11-23T06:55:23.097Z,56.11
2023-11-23T06:57:49.901Z,56.65
2023-11-23T07:00:18.717Z,57.92
2023-11-23T07:02:45.423Z,58.46
2023-11-23T07:05:12.248Z,58.27
2023-11-23T07:07:38.939Z,57.78
2023-11-23T07:10:06.769Z,58.03
2023-11-23T07:12:33.477Z,57.96
2023-11-23T07:15:00.414Z,58.57
2023-11-23T07:17:28.506Z,59.22
2023-11-23T07:19:55.276Z,59.16
2023-11-23T07:22:21.971Z,59.08
2023-11-23T07:24:48.692Z,59.31
2023-11-23T07:27:15.497Z,59.08
2023-11-23T07:29:42.259Z,58.80
2023-11-23T07:32:09.000Z,58.74
2023-11-23T07:34:37.988Z,58.24
2023-11-23T07:37:04.656Z,58.02
2023-11-23T07:39:31.382Z,57.51
2023-11-23T07:41:58.172Z,57.05
2023-11-23T07:44:24.932Z,56.98
2023-11-23T07:46:51.611Z,57.02
2023-11-23T07:49:18.381Z,57.42
2023-11-23T07:51:46.552Z,56.96
2023-11-23T07:54:13.265Z,56.90
2023-11-23T07:56:39.957Z,56.44
2023-11-23T07:59:06.649Z,56.66
2023-11-23T08:01:33.377Z,56.82
2023-11-23T08:04:00.300Z,56.45
2023-11-23T08:06:27.138Z,56.70
2023-11-23T08:08:55.190Z,56.40
2023-11-23T08:11:21.970Z,56.85
2023-11-23T08:13:48.622Z,56.80
2023-11-23T08:16:15.405Z,57.04
2023-11-23T08:18:49.578Z,57.03
2023-11-23T08:21:17.085Z,57.13
2023-11-23T08:23:43.816Z,56.82
2023-11-23T08:26:12.004Z,56.96
2023-11-23T08:28:38.788Z,56.97
2023-11-23T08:31:07.600Z,56.82
2023-11-23T08:33:34.327Z,56.65
2023-11-23T08:36:01.162Z,57.15
2023-11-23T08:38:27.867Z,57.03
2023-11-23T08:40:54.576Z,57.28
2023-11-23T08:43:22.637Z,57.26
2023-11-23T08:45:49.378Z,56.77
2023-11-23T08:48:16.147Z,56.34
2023-11-23T08:50:42.891Z,55.85
2023-11-23T08:53:09.605Z,55.46
2023-11-23T08:55:36.340Z,54.58
2023-11-23T08:58:03.068Z,54.62
2023-11-23T09:00:31.204Z,54.21
2023-11-23T09:02:58.036Z,53.82
2023-11-23T09:05:24.946Z,53.25
2023-11-23T09:07:51.753Z,53.31
2023-11-23T09:10:18.631Z,53.40
2023-11-23T09:12:45.302Z,54.08
2023-11-23T09:15:12.073Z,54.13
2023-11-23T09:17:40.206Z,53.62
2023-11-23T09:20:08.468Z,53.98
2023-11-23T09:22:35.320Z,53.18
2023-11-23T09:25:02.106Z,53.42
2023-11-23T09:27:28.870Z,53.85
2023-11-23T09:29:55.650Z,53.90
2023-11-23T09:32:22.389Z,52.82
2023-11-23T09:34:50.390Z,53.18
2023-11-23T09:37:17.150Z,52.73
2023-11-23T09:39:43.984Z,53.84
2023-11-23T09:42:10.696Z,53.47
2023-11-23T09:44:37.635Z,52.22
2023-11-23T09:47:04.934Z,52.23
2023-11-23T09:49:31.669Z,52.52
2023-11-23T09:51:59.705Z,52.33
2023-11-23T09:54:26.505Z,52.65
2023-11-23T09:56:53.405Z,52.44
2023-11-23T09:59:20.108Z,52.24
2023-11-23T10:01:47.012Z,52.89
2023-11-23T10:04:13.887Z,52.80
2023-11-23T10:06:40.733Z,51.63
2023-11-23T10:09:08.991Z,52.78
2023-11-23T10:11:35.696Z,52.27
2023-11-23T10:14:02.412Z,51.67
2023-11-23T10:16:31.386Z,53.29
2023-11-23T10:18:58.169Z,53.25
2023-11-23T10:21:24.939Z,52.93
2023-11-23T10:23:51.607Z,53.46
2023-11-23T10:26:19.639Z,52.78
2023-11-23T10:28:46.334Z,51.96
2023-11-23T10:31:14.059Z,52.82
2023-11-23T10:33:41.052Z,51.86
2023-11-23T10:36:08.364Z,52.48
2023-11-23T10:38:43.238Z,52.31
2023-11-23T10:41:11.341Z,51.61
2023-11-23T10:43:39.339Z,52.20
2023-11-23T10:46:07.941Z,52.24
2023-11-23T10:48:34.737Z,52.05
2023-11-23T10:51:02.791Z,51.68
2023-11-23T10:53:29.895Z,52.16
2023-11-23T10:55:57.002Z,51.83
2023-11-23T10:58:23.658Z,52.17
2023-11-23T11:00:51.749Z,52.43
2023-11-23T11:03:18.449Z,52.30
2023-11-23T11:05:48.201Z,51.72
2023-11-23T11:08:17.686Z,52.46
2023-11-23T11:10:48.111Z,53.65
2023-11-23T11:13:16.181Z,53.51
2023-11-23T11:15:51.117Z,52.90
2023-11-23T11:18:21.331Z,52.95
2023-11-23T11:20:59.620Z,51.96
2023-11-23T11:23:36.451Z,51.47
2023-11-23T11:26:06.943Z,51.70
2023-11-23T11:28:33.807Z,51.55
2023-11-23T11:31:07.608Z,51.23
2023-11-23T11:33:34.518Z,50.27
2023-11-23T11:36:01.311Z,50.96
2023-11-23T11:38:28.086Z,50.02
2023-11-23T11:40:54.765Z,52.11
2023-11-23T11:43:21.952Z,52.25
2023-11-23T11:45:48.646Z,52.90
2023-11-23T11:48:16.789Z,54.20
2023-11-23T11:50:43.485Z,52.67
2023-11-23T11:53:10.170Z,52.91
2023-11-23T11:55:36.892Z,52.75
2023-11-23T11:58:05.687Z,52.65
2023-11-23T12:00:34.781Z,51.99
2023-11-23T12:03:01.628Z,52.51
2023-11-23T12:05:29.909Z,52.22
2023-11-23T12:07:56.683Z,52.07
2023-11-23T12:10:23.375Z,51.59
2023-11-23T12:12:50.100Z,53.03
2023-11-23T12:15:17.657Z,52.29
2023-11-23T12:17:50.865Z,52.33
2023-11-23T12:20:17.713Z,52.29
2023-11-23T12:22:45.725Z,51.64
2023-11-23T12:25:12.425Z,52.08
2023-11-23T12:27:41.965Z,52.29
2023-11-23T12:30:09.492Z,52.08
2023-11-23T12:32:36.219Z,52.85
2023-11-23T12:35:03.108Z,52.00
2023-11-23T12:37:29.801Z,52.54
2023-11-23T12:39:57.837Z,53.41
2023-11-23T12:42:24.671Z,53.20
2023-11-23T12:44:51.561Z,53.32
2023-11-23T12:47:18.364Z,52.72
2023-11-23T12:49:45.078Z,53.31
2023-11-23T12:52:11.796Z,52.22
2023-11-23T12:54:38.541Z,52.23
2023-11-23T12:57:06.739Z,52.36
2023-11-23T12:59:33.486Z,51.51
2023-11-23T13:02:00.366Z,52.27
2023-11-23T13:04:27.250Z,51.65
2023-11-23T13:06:53.984Z,51.40
2023-11-23T13:09:20.739Z,51.54
2023-11-23T13:11:47.446Z,50.58
2023-11-23T13:14:15.519Z,50.06
2023-11-23T13:16:42.216Z,49.36
2023-11-23T13:19:17.233Z,49.48
2023-11-23T13:21:53.476Z,48.92
2023-11-23T13:24:20.432Z,49.17
2023-11-23T13:26:47.144Z,49.33
2023-11-23T13:29:15.242Z,48.62
2023-11-23T13:31:41.980Z,48.13
2023-11-23T13:34:08.725Z,48.68
2023-11-23T13:36:35.498Z,48.36
2023-11-23T13:39:02.636Z,47.10
2023-11-23T13:41:29.339Z,47.70
2023-11-23T13:43:56.066Z,46.97
2023-11-23T13:46:24.135Z,45.81
2023-11-23T13:48:50.882Z,47.41
2023-11-23T13:51:17.577Z,47.39
2023-11-23T13:53:44.378Z,47.39
2023-11-23T13:56:11.075Z,48.08
2023-11-23T13:58:37.785Z,46.81
2023-11-23T14:01:04.577Z,47.47
2023-11-23T14:03:32.714Z,46.27
2023-11-23T14:05:59.471Z,45.91
2023-11-23T14:08:26.178Z,47.08
2023-11-23T14:10:52.835Z,46.88
2023-11-23T14:13:19.578Z,45.70
2023-11-23T14:15:46.443Z,45.88
2023-11-23T14:18:13.339Z,44.92
2023-11-23T14:20:41.576Z,44.53
2023-11-23T14:23:08.260Z,45.08
2023-11-23T14:25:35.008Z,45.00
2023-11-23T14:28:01.782Z,44.92
2023-11-23T14:30:28.587Z,44.94
2023-11-23T14:32:55.461Z,46.31
2023-11-23T14:35:22.962Z,44.64
2023-11-23T14:37:51.113Z,45.23
2023-11-23T14:40:17.913Z,44.76
2023-11-23T14:42:55.717Z,44.18
2023-11-23T14:45:24.014Z,45.46
2023-11-23T14:47:50.769Z,44.05
2023-11-23T14:50:17.673Z,44.34
2023-11-23T14:52:44.358Z,44.75
2023-11-23T14:55:12.431Z,44.86
2023-11-23T14:57:39.248Z,45.37
2023-11-23T15:00:08.553Z,46.20
2023-11-23T15:02:35.340Z,46.12
2023-11-23T15:05:02.024Z,46.50
2023-11-23T15:07:28.763Z,46.20
2023-11-23T15:09:55.475Z,46.05
2023-11-23T15:12:24.110Z,45.79
2023-11-23T15:14:51.991Z,46.91
2023-11-23T15:17:18.676Z,46.87
2023-11-23T15:19:45.426Z,47.13
2023-11-23T15:22:12.130Z,47.64
2023-11-23T15:24:38.906Z,47.48
2023-11-23T15:27:05.685Z,48.15
2023-11-23T15:29:33.758Z,48.47
2023-11-23T15:32:00.493Z,48.52
2023-11-23T15:34:27.225Z,48.78
2023-11-23T15:36:53.922Z,49.02
2023-11-23T15:39:20.673Z,49.91
2023-11-23T15:41:47.364Z,50.26
2023-11-23T15:44:14.255Z,49.33
2023-11-23T15:46:42.598Z,49.55
2023-11-23T15:49:09.966Z,49.16
2023-11-23T15:51:36.737Z,49.72
2023-11-23T15:54:03.621Z,50.21
2023-11-23T15:56:30.300Z,51.31
2023-11-23T15:58:56.991Z,51.64
2023-11-23T16:01:23.789Z,51.97
2023-11-23T16:03:51.944Z,52.08
2023-11-23T16:06:18.767Z,52.16
2023-11-23T16:08:45.791Z,52.40
2023-11-23T16:11:12.529Z,51.65
2023-11-23T16:13:41.219Z,52.23
2023-11-23T16:16:08.158Z,52.02
2023-11-23T16:18:34.932Z,52.18
2023-11-23T16:21:03.005Z,51.81
2023-11-23T16:23:29.707Z,52.24
2023-11-23T16:25:56.458Z,51.94
2023-11-23T16:28:23.156Z,52.09
2023-11-23T16:30:49.906Z,51.56
2023-11-23T16:33:16.796Z,51.67
2023-11-23T16:35:43.574Z,51.67
2023-11-23T16:38:11.659Z,51.83
2023-11-23T16:40:38.380Z,52.09
2023-11-23T16:43:05.117Z,52.28
2023-11-23T16:45:31.876Z,52.21
2023-11-23T16:47:58.640Z,52.27
2023-11-23T16:50:25.372Z,52.68
2023-11-23T16:52:52.117Z,52.57
2023-11-23T16:55:20.162Z,52.75
2023-11-23T16:57:47.074Z,52.22
2023-11-23T17:00:14.922Z,52.40
2023-11-23T17:02:41.713Z,52.95
2023-11-23T17:05:09.533Z,52.93
2023-11-23T17:07:36.262Z,52.75
2023-11-23T17:10:03.367Z,53.11
2023-11-23T17:12:31.686Z,52.76
2023-11-23T17:14:58.375Z,52.75
2023-11-23T17:17:25.111Z,52.88
2023-11-23T17:19:51.824Z,53.35
2023-11-23T17:22:18.650Z,53.65
2023-11-23T17:24:45.438Z,53.25
2023-11-23T17:27:12.216Z,52.99
2023-11-23T17:29:40.305Z,53.12
2023-11-23T17:32:07.494Z,52.82
2023-11-23T17:34:34.988Z,53.07
2023-11-23T17:37:01.863Z,53.33
2023-11-23T17:39:28.558Z,54.26
2023-11-23T17:41:55.317Z,54.56
2023-11-23T17:44:22.079Z,54.63
2023-11-23T17:46:50.257Z,54.28
2023-11-23T17:49:16.950Z,54.50
2023-11-23T17:51:43.718Z,55.03
2023-11-23T17:54:10.448Z,55.08
2023-11-23T17:56:37.165Z,55.43
2023-11-23T17:59:19.762Z,54.40
2023-11-23T18:01:53.927Z,55.71
2023-11-23T18:04:20.905Z,55.00
2023-11-23T18:06:47.839Z,55.89
2023-11-23T18:09:15.887Z,55.16
2023-11-23T18:11:45.632Z,55.73
2023-11-23T18:14:12.769Z,55.71
2023-11-23T18:16:39.551Z,56.20
2023-11-23T18:19:13.428Z,56.03
2023-11-23T18:21:40.209Z,56.23
2023-11-23T18:24:07.012Z,56.42
2023-11-23T18:26:33.862Z,56.13
2023-11-23T18:29:00.553Z,56.28
2023-11-23T18:31:27.642Z,56.23
2023-11-23T18:33:54.445Z,56.29
2023-11-23T18:36:22.721Z,56.68
2023-11-23T18:38:49.416Z,58.17
2023-11-23T18:41:16.226Z,57.80
2023-11-23T18:43:43.086Z,57.60
2023-11-23T18:46:09.796Z,57.30
2023-11-23T18:48:36.634Z,58.13
2023-11-23T18:51:03.535Z,57.50
2023-11-23T18:53:31.652Z,57.84
2023-11-23T18:55:58.477Z,56.81
2023-11-23T18:58:25.165Z,56.14
2023-11-23T19:00:52.138Z,56.62
2023-11-23T19:03:19.145Z,57.07
2023-11-23T19:05:45.953Z,57.17
2023-11-23T19:08:12.819Z,56.45
2023-11-23T19:10:40.979Z,57.70
2023-11-23T19:13:07.815Z,56.74
2023-11-23T19:15:34.851Z,57.26
2023-11-23T19:18:02.156Z,56.57
2023-11-23T19:20:30.637Z,57.15
2023-11-23T19:23:00.870Z,57.90
2023-11-23T19:25:30.490Z,57.50
2023-11-23T19:28:00.973Z,57.61
2023-11-23T19:30:28.604Z,57.55
2023-11-23T19:32:55.786Z,57.77
2023-11-23T19:35:23.093Z,57.85
2023-11-23T19:37:59.580Z,57.43
2023-11-23T19:40:28.623Z,57.49
2023-11-23T19:42:56.029Z,57.70
2023-11-23T19:45:25.580Z,57.66
2023-11-23T19:47:53.120Z,57.54
2023-11-23T19:50:23.812Z,56.82
2023-11-23T19:52:52.293Z,57.60
2023-11-23T19:55:21.942Z,56.98
2023-11-23T19:57:54.217Z,57.33
2023-11-23T20:00:25.073Z,57.33
2023-11-23T20:02:52.155Z,57.24
2023-11-23T20:05:26.863Z,57.68
2023-11-23T20:07:53.683Z,57.33
2023-11-23T20:10:20.376Z,57.04
2023-11-23T20:12:47.366Z,57.95
2023-11-23T20:15:14.380Z,57.75
2023-11-23T20:17:42.613Z,56.83
2023-11-23T20:20:10.708Z,57.48
2023-11-23T20:22:37.493Z,57.75
2023-11-23T20:25:05.071Z,57.47
2023-11-23T20:27:31.992Z,57.48
2023-11-23T20:29:58.828Z,57.37
2023-11-23T20:32:25.556Z,57.16
2023-11-23T20:34:53.827Z,57.64
2023-11-23T20:37:20.728Z,57.79
2023-11-23T20:39:47.562Z,56.70
2023-11-23T20:42:14.939Z,56.57
2023-11-23T20:44:41.704Z,57.46
2023-11-23T20:47:08.661Z,57.03
2023-11-23T20:49:35.406Z,57.43
2023-11-23T20:52:03.891Z,57.55
2023-11-23T20:54:30.833Z,58.38
2023-11-23T20:56:58.222Z,58.12
2023-11-23T20:59:25.619Z,57.80
2023-11-23T21:01:52.996Z,57.40
2023-11-23T21:04:22.029Z,57.67
2023-11-23T21:06:58.960Z,57.58
2023-11-23T21:09:30.875Z,57.04
2023-11-23T21:11:57.624Z,58.19
2023-11-23T21:14:24.877Z,58.63
2023-11-23T21:16:51.714Z,59.17
2023-11-23T21:19:18.574Z,59.33
2023-11-23T21:21:45.689Z,59.43
2023-11-23T21:24:12.605Z,59.36
2023-11-23T21:26:40.627Z,59.43
2023-11-23T21:29:10.301Z,59.60
2023-11-23T21:31:37.142Z,59.70
2023-11-23T21:34:03.978Z,59.44
2023-11-23T21:36:30.715Z,59.35
2023-11-23T21:38:57.728Z,59.34
2023-11-23T21:41:24.614Z,59.23
2023-11-23T21:43:52.679Z,59.03
2023-11-23T21:46:19.540Z,59.06
2023-11-23T21:48:46.241Z,59.18
2023-11-23T21:51:19.037Z,58.93
2023-11-23T21:53:45.906Z,58.63
2023-11-23T21:56:12.804Z,58.35
2023-11-23T21:58:39.577Z,58.06
2023-11-23T22:01:07.786Z,58.16
2023-11-23T22:03:34.666Z,58.05
2023-11-23T22:06:01.584Z,58.34
2023-11-23T22:08:28.328Z,58.93
2023-11-23T22:10:55.004Z,58.54
2023-11-23T22:13:21.743Z,58.57
2023-11-23T22:15:48.915Z,58.96
2023-11-23T22:18:17.845Z,59.77
2023-11-23T22:20:44.783Z,60.02
2023-11-23T22:23:12.111Z,59.81
2023-11-23T22:25:39.378Z,59.30
2023-11-23T22:28:06.957Z,59.14
2023-11-23T22:30:34.330Z,59.06
2023-11-23T22:33:01.198Z,59.43
2023-11-23T22:35:30.353Z,59.61
2023-11-23T22:37:57.766Z,59.47
2023-11-23T22:40:25.186Z,59.23
2023-11-23T22:42:52.320Z,60.16
2023-11-23T22:45:19.721Z,59.99
2023-11-23T22:47:46.500Z,60.39
2023-11-23T22:50:13.302Z,60.07
2023-11-23T22:52:41.320Z,60.12
2023-11-23T22:55:08.754Z,60.25
2023-11-23T22:57:35.505Z,60.63
2023-11-23T23:00:02.238Z,60.78
2023-11-23T23:02:29.180Z,60.54
2023-11-23T23:04:55.963Z,60.22
2023-11-23T23:07:22.703Z,60.84
2023-11-23T23:09:50.895Z,60.15
2023-11-23T23:12:17.651Z,61.08
2023-11-23T23:14:44.337Z,61.37
2023-11-23T23:17:11.037Z,61.25
2023-11-23T23:19:37.788Z,61.14
2023-11-23T23:22:09.223Z,61.25
2023-11-23T23:24:40.722Z,61.27
2023-11-23T23:27:08.751Z,60.80
2023-11-23T23:29:35.521Z,60.41
2023-11-23T23:32:02.271Z,60.67
2023-11-23T23:34:29.138Z,60.70
2023-11-23T23:36:55.952Z,60.70
2023-11-23T23:39:22.697Z,59.83
2023-11-23T23:41:49.440Z,59.74
2023-11-23T23:44:17.496Z,60.09
2023-11-23T23:46:44.185Z,59.90
2023-11-23T23:49:10.897Z,60.57
2023-11-23T23:51:37.608Z,60.13
2023-11-23T23:54:04.455Z,60.35
2023-11-23T23:56:31.187Z,59.85
2023-11-23T23:58:57.954Z,59.50
